sensor_id;sensor_type;location;lat;lon;timestamp;pressure;altitude;pressure_sealevel;temperature;humidity
52535;BME280;38443;53.164;5.802;2023-05-12T00:02:22;102026.19;;;8.88;100.00
52535;BME280;38443;53.164;5.802;2023-05-12T00:04:47;102032.44;;;8.87;100.00
52535;BME280;38443;53.164;5.802;2023-05-12T00:07:14;102031.53;;;8.86;100.00
52535;BME280;38443;53.164;5.802;2023-05-12T00:09:39;102021.75;;;8.85;100.00
52535;BME280;38443;53.164;5.802;2023-05-12T00:12:06;102024.41;;;8.85;100.00
52535;BME280;38443;53.164;5.802;2023-05-12T00:14:33;102024.41;;;8.85;100.00
52535;BME280;38443;53.164;5.802;2023-05-12T00:16:59;102022.66;;;8.84;100.00
52535;BME280;38443;53.164;5.802;2023-05-12T00:19:24;102019.97;;;8.83;100.00
52535;BME280;38443;53.164;5.802;2023-05-12T00:21:50;102021.75;;;8.84;100.00
52535;BME280;38443;53.164;5.802;2023-05-12T00:24:15;102031.56;;;8.80;100.00
52535;BME280;38443;53.164;5.802;2023-05-12T00:26:40;102022.66;;;8.81;100.00
52535;BME280;38443;53.164;5.802;2023-05-12T00:29:06;102019.97;;;8.81;100.00
52535;BME280;38443;53.164;5.802;2023-05-12T00:31:31;102011.97;;;8.81;100.00
52535;BME280;38443;53.164;5.802;2023-05-12T00:33:56;102015.53;;;8.82;100.00
52535;BME280;38443;53.164;5.802;2023-05-12T00:36:22;102003.09;;;8.82;100.00
52535;BME280;38443;53.164;5.802;2023-05-12T00:38:47;102009.31;;;8.83;100.00
52535;BME280;38443;53.164;5.802;2023-05-12T00:41:13;102002.19;;;8.85;100.00
52535;BME280;38443;53.164;5.802;2023-05-12T00:43:38;102006.59;;;8.86;100.00
52535;BME280;38443;53.164;5.802;2023-05-12T00:46:04;102000.38;;;8.87;100.00
52535;BME280;38443;53.164;5.802;2023-05-12T00:48:31;102003.94;;;8.87;100.00
52535;BME280;38443;53.164;5.802;2023-05-12T00:50:57;102001.28;;;8.87;100.00
52535;BME280;38443;53.164;5.802;2023-05-12T00:53:23;101997.72;;;8.88;100.00
52535;BME280;38443;53.164;5.802;2023-05-12T00:55:48;102006.63;;;8.90;100.00
52535;BME280;38443;53.164;5.802;2023-05-12T00:58:14;102003.94;;;8.90;100.00
52535;BME280;38443;53.164;5.802;2023-05-12T01:00:39;101998.56;;;8.92;100.00
52535;BME280;38443;53.164;5.802;2023-05-12T01:03:05;101999.47;;;8.92;100.00
52535;BME280;38443;53.164;5.802;2023-05-12T01:05:31;101996.81;;;8.92;100.00
52535;BME280;38443;53.164;5.802;2023-05-12T01:07:59;101995.03;;;8.93;100.00
52535;BME280;38443;53.164;5.802;2023-05-12T01:10:24;101999.47;;;8.95;100.00
52535;BME280;38443;53.164;5.802;2023-05-12T01:12:50;101999.47;;;8.97;100.00
52535;BME280;38443;53.164;5.802;2023-05-12T01:15:16;102003.00;;;8.99;100.00
52535;BME280;38443;53.164;5.802;2023-05-12T01:17:46;101997.66;;;8.99;100.00
52535;BME280;38443;53.164;5.802;2023-05-12T01:20:15;101992.31;;;9.02;100.00
52535;BME280;38443;53.164;5.802;2023-05-12T01:22:42;101990.53;;;9.03;100.00
52535;BME280;38443;53.164;5.802;2023-05-12T01:25:08;102000.34;;;9.02;100.00
52535;BME280;38443;53.164;5.802;2023-05-12T01:27:37;101988.75;;;9.03;100.00
52535;BME280;38443;53.164;5.802;2023-05-12T01:30:05;101993.22;;;9.03;100.00
52535;BME280;38443;53.164;5.802;2023-05-12T01:32:30;101993.22;;;9.04;100.00
52535;BME280;38443;53.164;5.802;2023-05-12T01:34:56;101993.22;;;9.04;100.00
52535;BME280;38443;53.164;5.802;2023-05-12T01:37:21;101987.88;;;9.03;100.00
52535;BME280;38443;53.164;5.802;2023-05-12T01:39:49;101995.88;;;9.04;100.00
52535;BME280;38443;53.164;5.802;2023-05-12T01:42:14;101992.28;;;9.04;100.00
52535;BME280;38443;53.164;5.802;2023-05-12T01:44:39;101995.84;;;9.06;100.00
52535;BME280;38443;53.164;5.802;2023-05-12T01:47:05;101993.22;;;9.04;100.00
52535;BME280;38443;53.164;5.802;2023-05-12T01:49:33;101992.28;;;9.07;100.00
52535;BME280;38443;53.164;5.802;2023-05-12T01:51:59;101990.53;;;9.04;100.00
52535;BME280;38443;53.164;5.802;2023-05-12T01:54:24;102002.09;;;9.06;100.00
52535;BME280;38443;53.164;5.802;2023-05-12T01:56:50;101987.84;;;9.06;100.00
52535;BME280;38443;53.164;5.802;2023-05-12T01:59:15;101987.84;;;9.07;100.00
52535;BME280;38443;53.164;5.802;2023-05-12T02:01:40;101994.06;;;9.08;100.00
52535;BME280;38443;53.164;5.802;2023-05-12T02:04:05;101995.84;;;9.09;100.00
52535;BME280;38443;53.164;5.802;2023-05-12T02:06:32;101990.50;;;9.09;100.00
52535;BME280;38443;53.164;5.802;2023-05-12T02:08:58;102002.06;;;9.09;100.00
52535;BME280;38443;53.164;5.802;2023-05-12T02:11:23;101989.59;;;9.10;100.00
52535;BME280;38443;53.164;5.802;2023-05-12T02:13:48;101989.59;;;9.10;100.00
52535;BME280;38443;53.164;5.802;2023-05-12T02:16:13;102002.06;;;9.09;100.00
52535;BME280;38443;53.164;5.802;2023-05-12T02:18:39;101997.59;;;9.10;100.00
52535;BME280;38443;53.164;5.802;2023-05-12T02:21:04;101994.94;;;9.13;100.00
52535;BME280;38443;53.164;5.802;2023-05-12T02:23:29;102005.63;;;9.13;100.00
52535;BME280;38443;53.164;5.802;2023-05-12T02:25:55;102001.16;;;9.15;100.00
52535;BME280;38443;53.164;5.802;2023-05-12T02:28:20;101993.16;;;9.15;100.00
52535;BME280;38443;53.164;5.802;2023-05-12T02:30:45;101996.69;;;9.15;100.00
52535;BME280;38443;53.164;5.802;2023-05-12T02:33:12;102000.25;;;9.16;100.00
52535;BME280;38443;53.164;5.802;2023-05-12T02:35:38;102002.91;;;9.17;100.00
52535;BME280;38443;53.164;5.802;2023-05-12T02:38:04;102000.25;;;9.19;100.00
52535;BME280;38443;53.164;5.802;2023-05-12T02:40:29;102002.03;;;9.18;100.00
52535;BME280;38443;53.164;5.802;2023-05-12T02:42:55;102002.00;;;9.22;100.00
52535;BME280;38443;53.164;5.802;2023-05-12T02:45:20;102004.69;;;9.23;100.00
52535;BME280;38443;53.164;5.802;2023-05-12T02:47:45;102002.00;;;9.25;100.00
52535;BME280;38443;53.164;5.802;2023-05-12T02:50:11;102007.34;;;9.26;100.00
52535;BME280;38443;53.164;5.802;2023-05-12T02:52:36;101994.88;;;9.28;100.00
52535;BME280;38443;53.164;5.802;2023-05-12T02:55:01;101999.31;;;9.28;100.00
52535;BME280;38443;53.164;5.802;2023-05-12T02:57:26;102005.53;;;9.30;100.00
52535;BME280;38443;53.164;5.802;2023-05-12T02:59:57;102001.97;;;9.32;100.00
52535;BME280;38443;53.164;5.802;2023-05-12T03:02:23;102000.19;;;9.34;100.00
52535;BME280;38443;53.164;5.802;2023-05-12T03:04:48;101996.59;;;9.35;100.00
52535;BME280;38443;53.164;5.802;2023-05-12T03:07:13;101994.81;;;9.37;100.00
52535;BME280;38443;53.164;5.802;2023-05-12T03:09:38;102001.91;;;9.40;100.00
52535;BME280;38443;53.164;5.802;2023-05-12T03:12:04;102009.03;;;9.41;100.00
52535;BME280;38443;53.164;5.802;2023-05-12T03:14:29;102008.13;;;9.44;100.00
52535;BME280;38443;53.164;5.802;2023-05-12T03:16:54;102008.13;;;9.45;100.00
52535;BME280;38443;53.164;5.802;2023-05-12T03:19:19;102000.97;;;9.46;100.00
52535;BME280;38443;53.164;5.802;2023-05-12T03:21:45;101998.31;;;9.47;100.00
52535;BME280;38443;53.164;5.802;2023-05-12T03:24:10;101999.19;;;9.48;100.00
52535;BME280;38443;53.164;5.802;2023-05-12T03:26:35;101992.03;;;9.50;100.00
52535;BME280;38443;53.164;5.802;2023-05-12T03:29:01;102000.94;;;9.52;100.00
52535;BME280;38443;53.164;5.802;2023-05-12T03:31:26;102003.63;;;9.53;100.00
52535;BME280;38443;53.164;5.802;2023-05-12T03:33:51;102000.06;;;9.54;100.00
52535;BME280;38443;53.164;5.802;2023-05-12T03:36:16;102000.03;;;9.57;100.00
52535;BME280;38443;53.164;5.802;2023-05-12T03:38:42;102000.91;;;9.58;100.00
52535;BME280;38443;53.164;5.802;2023-05-12T03:41:07;102000.91;;;9.61;100.00
52535;BME280;38443;53.164;5.802;2023-05-12T03:43:32;102004.44;;;9.63;100.00
52535;BME280;38443;53.164;5.802;2023-05-12T03:45:57;102012.47;;;9.66;100.00
52535;BME280;38443;53.164;5.802;2023-05-12T03:48:23;102008.88;;;9.69;100.00
52535;BME280;38443;53.164;5.802;2023-05-12T03:50:48;102004.41;;;9.69;100.00
52535;BME280;38443;53.164;5.802;2023-05-12T03:53:14;102002.59;;;9.71;100.00
52535;BME280;38443;53.164;5.802;2023-05-12T03:55:39;101997.25;;;9.73;100.00
52535;BME280;38443;53.164;5.802;2023-05-12T03:58:05;102004.34;;;9.74;100.00
52535;BME280;38443;53.164;5.802;2023-05-12T04:00:30;102006.16;;;9.75;100.00
52535;BME280;38443;53.164;5.802;2023-05-12T04:02:55;102001.69;;;9.77;100.00
52535;BME280;38443;53.164;5.802;2023-05-12T04:05:20;102005.22;;;9.79;100.00
52535;BME280;38443;53.164;5.802;2023-05-12T04:07:46;101998.09;;;9.79;100.00
52535;BME280;38443;53.164;5.802;2023-05-12T04:10:11;102003.44;;;9.81;100.00
52535;BME280;38443;53.164;5.802;2023-05-12T04:12:36;101997.16;;;9.82;100.00
52535;BME280;38443;53.164;5.802;2023-05-12T04:15:01;101997.16;;;9.84;100.00
52535;BME280;38443;53.164;5.802;2023-05-12T04:18:04;101997.16;;;9.87;100.00
52535;BME280;38443;53.164;5.802;2023-05-12T04:20:29;101999.81;;;9.87;100.00
52535;BME280;38443;53.164;5.802;2023-05-12T04:22:55;102012.28;;;9.89;100.00
52535;BME280;38443;53.164;5.802;2023-05-12T04:25:20;102003.34;;;9.92;100.00
52535;BME280;38443;53.164;5.802;2023-05-12T04:27:46;102012.28;;;9.91;100.00
52535;BME280;38443;53.164;5.802;2023-05-12T04:30:11;102006.00;;;9.93;100.00
52535;BME280;38443;53.164;5.802;2023-05-12T04:32:36;102008.69;;;9.93;100.00
52535;BME280;38443;53.164;5.802;2023-05-12T04:35:02;102022.03;;;9.96;100.00
52535;BME280;38443;53.164;5.802;2023-05-12T04:37:27;102022.03;;;9.96;100.00
52535;BME280;38443;53.164;5.802;2023-05-12T04:39:52;102024.69;;;9.99;100.00
52535;BME280;38443;53.164;5.802;2023-05-12T04:42:18;102016.66;;;10.01;100.00
52535;BME280;38443;53.164;5.802;2023-05-12T04:44:43;102021.94;;;10.04;100.00
52535;BME280;38443;53.164;5.802;2023-05-12T04:47:10;102024.63;;;10.06;100.00
52535;BME280;38443;53.164;5.802;2023-05-12T04:49:36;102023.75;;;10.05;100.00
52535;BME280;38443;53.164;5.802;2023-05-12T04:52:01;102029.03;;;10.10;100.00
52535;BME280;38443;53.164;5.802;2023-05-12T04:54:26;102022.81;;;10.11;100.00
52535;BME280;38443;53.164;5.802;2023-05-12T04:56:52;102030.78;;;10.17;100.00
52535;BME280;38443;53.164;5.802;2023-05-12T04:59:17;102037.00;;;10.19;100.00
52535;BME280;38443;53.164;5.802;2023-05-12T05:01:42;102034.28;;;10.22;100.00
52535;BME280;38443;53.164;5.802;2023-05-12T05:04:08;102033.38;;;10.26;100.00
52535;BME280;38443;53.164;5.802;2023-05-12T05:06:33;102043.19;;;10.30;100.00
52535;BME280;38443;53.164;5.802;2023-05-12T05:08:58;102046.72;;;10.34;100.00
52535;BME280;38443;53.164;5.802;2023-05-12T05:11:24;102053.81;;;10.38;100.00
52535;BME280;38443;53.164;5.802;2023-05-12T05:13:50;102052.94;;;10.37;100.00
52535;BME280;38443;53.164;5.802;2023-05-12T05:16:15;102055.59;;;10.39;100.00
52535;BME280;38443;53.164;5.802;2023-05-12T05:18:40;102058.22;;;10.42;100.00
52535;BME280;38443;53.164;5.802;2023-05-12T05:21:13;102067.13;;;10.47;100.00
52535;BME280;38443;53.164;5.802;2023-05-12T05:23:39;102065.31;;;10.49;100.00
52535;BME280;38443;53.164;5.802;2023-05-12T05:26:05;102067.06;;;10.53;100.00
52535;BME280;38443;53.164;5.802;2023-05-12T05:28:30;102073.28;;;10.57;100.00
52535;BME280;38443;53.164;5.802;2023-05-12T05:30:55;102065.19;;;10.62;100.00
52535;BME280;38443;53.164;5.802;2023-05-12T05:33:21;102067.81;;;10.66;100.00
52535;BME280;38443;53.164;5.802;2023-05-12T05:35:46;102070.47;;;10.72;100.00
52535;BME280;38443;53.164;5.802;2023-05-12T05:38:12;102065.94;;;10.76;100.00
52535;BME280;38443;53.164;5.802;2023-05-12T05:40:37;102072.13;;;10.83;100.00
52535;BME280;38443;53.164;5.802;2023-05-12T05:43:03;102070.28;;;10.88;100.00
52535;BME280;38443;53.164;5.802;2023-05-12T05:45:28;102080.06;;;10.92;100.00
52535;BME280;38443;53.164;5.802;2023-05-12T05:47:53;102084.47;;;10.96;100.00
52535;BME280;38443;53.164;5.802;2023-05-12T05:50:19;102082.66;;;11.01;100.00
52535;BME280;38443;53.164;5.802;2023-05-12T05:52:44;102074.56;;;11.04;100.00
52535;BME280;38443;53.164;5.802;2023-05-12T05:55:09;102077.22;;;11.06;100.00
52535;BME280;38443;53.164;5.802;2023-05-12T05:57:35;102076.28;;;11.10;100.00
52535;BME280;38443;53.164;5.802;2023-05-12T06:00:00;102083.38;;;11.17;100.00
52535;BME280;38443;53.164;5.802;2023-05-12T06:02:26;102084.16;;;11.24;100.00
52535;BME280;38443;53.164;5.802;2023-05-12T06:04:51;102090.31;;;11.30;100.00
52535;BME280;38443;53.164;5.802;2023-05-12T06:07:17;102090.25;;;11.36;100.00
52535;BME280;38443;53.164;5.802;2023-05-12T06:09:42;102092.81;;;11.46;100.00
52535;BME280;38443;53.164;5.802;2023-05-12T06:12:08;102086.50;;;11.50;100.00
52535;BME280;38443;53.164;5.802;2023-05-12T06:14:33;102094.50;;;11.54;100.00
52535;BME280;38443;53.164;5.802;2023-05-12T06:16:58;102085.47;;;11.63;100.00
52535;BME280;38443;53.164;5.802;2023-05-12T06:19:24;102096.09;;;11.71;100.00
52535;BME280;38443;53.164;5.802;2023-05-12T06:21:49;102090.63;;;11.77;100.00
52535;BME280;38443;53.164;5.802;2023-05-12T06:24:16;102100.41;;;11.83;100.00
52535;BME280;38443;53.164;5.802;2023-05-12T06:26:42;102102.16;;;11.84;100.00
52535;BME280;38443;53.164;5.802;2023-05-12T06:29:07;102101.19;;;11.88;100.00
52535;BME280;38443;53.164;5.802;2023-05-12T06:31:32;102104.66;;;11.97;100.00
52535;BME280;38443;53.164;5.802;2023-05-12T06:33:58;102109.16;;;11.97;100.00
52535;BME280;38443;53.164;5.802;2023-05-12T06:36:24;102101.97;;;11.97;100.00
52535;BME280;38443;53.164;5.802;2023-05-12T06:38:49;102105.53;;;11.98;100.00
52535;BME280;38443;53.164;5.802;2023-05-12T06:41:15;102100.16;;;12.00;100.00
52535;BME280;38443;53.164;5.802;2023-05-12T06:43:40;102105.47;;;12.03;100.00
52535;BME280;38443;53.164;5.802;2023-05-12T06:46:06;102114.41;;;12.05;100.00
52535;BME280;38443;53.164;5.802;2023-05-12T06:48:32;102106.31;;;12.08;100.00
52535;BME280;38443;53.164;5.802;2023-05-12T06:50:58;102108.09;;;12.09;100.00
52535;BME280;38443;53.164;5.802;2023-05-12T06:53:25;102106.19;;;12.14;100.00
52535;BME280;38443;53.164;5.802;2023-05-12T06:55:50;102114.16;;;12.18;100.00
52535;BME280;38443;53.164;5.802;2023-05-12T06:58:17;102114.13;;;12.22;100.00
52535;BME280;38443;53.164;5.802;2023-05-12T07:00:43;102113.19;;;12.24;100.00
52535;BME280;38443;53.164;5.802;2023-05-12T07:03:08;102107.78;;;12.27;100.00
52535;BME280;38443;53.164;5.802;2023-05-12T07:05:34;102110.38;;;12.33;100.00
52535;BME280;38443;53.164;5.802;2023-05-12T07:08:00;102134.34;;;12.44;100.00
52535;BME280;38443;53.164;5.802;2023-05-12T07:10:25;102144.09;;;12.51;100.00
52535;BME280;38443;53.164;5.802;2023-05-12T07:12:50;102141.25;;;12.61;100.00
52535;BME280;38443;53.164;5.802;2023-05-12T07:15:16;102139.31;;;12.69;100.00
52535;BME280;38443;53.164;5.802;2023-05-12T07:17:41;102142.78;;;12.77;100.00
52535;BME280;38443;53.164;5.802;2023-05-12T07:20:07;102137.31;;;12.82;100.00
52535;BME280;38443;53.164;5.802;2023-05-12T07:22:34;102139.00;;;12.87;100.00
52535;BME280;38443;53.164;5.802;2023-05-12T07:24:59;102138.78;;;12.98;100.00
52535;BME280;38443;53.164;5.802;2023-05-12T07:27:24;102136.94;;;13.03;100.00
52535;BME280;38443;53.164;5.802;2023-05-12T07:29:50;102140.41;;;13.07;100.00
52535;BME280;38443;53.164;5.802;2023-05-12T07:32:15;102134.91;;;13.14;100.00
52535;BME280;38443;53.164;5.802;2023-05-12T07:34:40;102140.09;;;13.24;100.00
52535;BME280;38443;53.164;5.802;2023-05-12T07:37:06;102144.41;;;13.34;100.00
52535;BME280;38443;53.164;5.802;2023-05-12T07:39:31;102139.03;;;13.35;100.00
52535;BME280;38443;53.164;5.802;2023-05-12T07:41:57;102137.06;;;13.42;100.00
52535;BME280;38443;53.164;5.802;2023-05-12T07:44:24;102126.22;;;13.47;100.00
52535;BME280;38443;53.164;5.802;2023-05-12T07:46:49;102135.91;;;13.55;100.00
52535;BME280;38443;53.164;5.802;2023-05-12T07:49:14;102137.63;;;13.60;100.00
52535;BME280;38443;53.164;5.802;2023-05-12T07:51:40;102137.50;;;13.66;100.00
52535;BME280;38443;53.164;5.802;2023-05-12T07:54:05;102133.81;;;13.70;100.00
52535;BME280;38443;53.164;5.802;2023-05-12T07:56:31;102123.97;;;13.69;100.00
52535;BME280;38443;53.164;5.802;2023-05-12T07:58:57;102120.19;;;13.79;100.00
52535;BME280;38443;53.164;5.802;2023-05-12T08:01:22;102129.03;;;13.83;100.00
52535;BME280;38443;53.164;5.802;2023-05-12T08:03:48;102133.44;;;13.87;100.00
52535;BME280;38443;53.164;5.802;2023-05-12T08:06:15;102131.56;;;13.90;100.00
52535;BME280;38443;53.164;5.802;2023-05-12T08:08:40;102130.56;;;13.94;100.00
52535;BME280;38443;53.164;5.802;2023-05-12T08:11:06;102132.22;;;14.02;100.00
52535;BME280;38443;53.164;5.802;2023-05-12T08:13:31;102123.91;;;14.11;100.00
52535;BME280;38443;53.164;5.802;2023-05-12T08:15:57;102132.75;;;14.18;100.00
52535;BME280;38443;53.164;5.802;2023-05-12T08:18:22;102140.69;;;14.24;100.00
52535;BME280;38443;53.164;5.802;2023-05-12T08:20:48;102143.28;;;14.27;100.00
52535;BME280;38443;53.164;5.802;2023-05-12T08:23:15;102145.88;;;14.31;100.00
52535;BME280;38443;53.164;5.802;2023-05-12T08:25:41;102142.25;;;14.32;100.00
52535;BME280;38443;53.164;5.802;2023-05-12T08:28:09;102146.63;;;14.38;100.00
52535;BME280;38443;53.164;5.802;2023-05-12T08:30:34;102146.44;;;14.46;100.00
52535;BME280;38443;53.164;5.802;2023-05-12T08:33:00;102146.25;;;14.53;100.00
52535;BME280;38443;53.164;5.802;2023-05-12T08:35:25;102147.88;;;14.61;100.00
52535;BME280;38443;53.164;5.802;2023-05-12T08:37:51;102152.00;;;14.75;100.00
52535;BME280;38443;53.164;5.802;2023-05-12T08:40:20;102157.13;;;14.86;100.00
52535;BME280;38443;53.164;5.802;2023-05-12T08:43:08;102155.81;;;15.01;100.00
52535;BME280;38443;53.164;5.802;2023-05-12T08:45:37;102156.22;;;15.20;100.00
52535;BME280;38443;53.164;5.802;2023-05-12T08:48:08;102150.28;;;15.39;100.00
52535;BME280;38443;53.164;5.802;2023-05-12T08:50:35;102153.25;;;15.61;100.00
52535;BME280;38443;53.164;5.802;2023-05-12T08:53:03;102141.91;;;15.81;100.00
52535;BME280;38443;53.164;5.802;2023-05-12T08:55:29;102135.72;;;16.05;100.00
52535;BME280;38443;53.164;5.802;2023-05-12T08:57:57;102132.19;;;16.31;100.00
52535;BME280;38443;53.164;5.802;2023-05-12T09:00:22;102131.44;;;16.54;100.00
52535;BME280;38443;53.164;5.802;2023-05-12T09:02:50;102130.28;;;16.90;100.00
52535;BME280;38443;53.164;5.802;2023-05-12T09:05:17;102126.53;;;17.43;100.00
52535;BME280;38443;53.164;5.802;2023-05-12T09:07:42;102122.41;;;17.80;100.00
52535;BME280;38443;53.164;5.802;2023-05-12T09:10:14;102112.53;;;18.02;100.00
52535;BME280;38443;53.164;5.802;2023-05-12T09:12:41;102113.13;;;18.10;100.00
52535;BME280;38443;53.164;5.802;2023-05-12T09:15:10;102110.66;;;18.04;100.00
52535;BME280;38443;53.164;5.802;2023-05-12T09:17:39;102116.56;;;18.14;100.00
52535;BME280;38443;53.164;5.802;2023-05-12T09:20:05;102106.38;;;17.99;100.00
52535;BME280;38443;53.164;5.802;2023-05-12T09:22:32;102108.50;;;17.90;100.00
52535;BME280;38443;53.164;5.802;2023-05-12T09:24:59;102109.91;;;18.01;100.00
52535;BME280;38443;53.164;5.802;2023-05-12T09:27:28;102109.91;;;18.23;100.00
52535;BME280;38443;53.164;5.802;2023-05-12T09:29:54;102112.03;;;18.37;100.00
52535;BME280;38443;53.164;5.802;2023-05-12T09:32:30;102104.69;;;18.18;100.00
52535;BME280;38443;53.164;5.802;2023-05-12T09:35:01;102110.22;;;18.15;100.00
52535;BME280;38443;53.164;5.802;2023-05-12T09:37:31;102107.44;;;18.17;100.00
52535;BME280;38443;53.164;5.802;2023-05-12T09:40:07;102109.09;;;18.21;100.00
52535;BME280;38443;53.164;5.802;2023-05-12T09:42:34;102116.41;;;18.19;100.00
52535;BME280;38443;53.164;5.802;2023-05-12T09:45:04;102112.97;;;18.13;100.00
52535;BME280;38443;53.164;5.802;2023-05-12T09:47:37;102113.69;;;18.19;100.00
52535;BME280;38443;53.164;5.802;2023-05-12T09:50:04;102108.31;;;18.39;100.00
52535;BME280;38443;53.164;5.802;2023-05-12T09:52:34;102118.78;;;18.48;100.00
52535;BME280;38443;53.164;5.802;2023-05-12T09:55:07;102114.44;;;18.44;100.00
52535;BME280;38443;53.164;5.802;2023-05-12T09:57:37;102115.09;;;18.49;100.00
52535;BME280;38443;53.164;5.802;2023-05-12T10:00:08;102128.28;;;18.59;100.00
52535;BME280;38443;53.164;5.802;2023-05-12T10:02:41;102120.81;;;18.64;100.00
52535;BME280;38443;53.164;5.802;2023-05-12T10:05:13;102123.75;;;18.59;100.00
52535;BME280;38443;53.164;5.802;2023-05-12T10:07:39;102114.50;;;18.43;100.00
52535;BME280;38443;53.164;5.802;2023-05-12T10:10:05;102122.47;;;18.46;100.00
52535;BME280;38443;53.164;5.802;2023-05-12T10:12:32;102125.25;;;18.66;100.00
52535;BME280;38443;53.164;5.802;2023-05-12T10:15:00;102108.50;;;18.77;100.00
52535;BME280;38443;53.164;5.802;2023-05-12T10:17:26;102116.06;;;18.91;100.00
52535;BME280;38443;53.164;5.802;2023-05-12T10:19:53;102122.09;;;18.98;100.00
52535;BME280;38443;53.164;5.802;2023-05-12T10:22:19;102116.94;;;19.12;100.00
52535;BME280;38443;53.164;5.802;2023-05-12T10:24:46;102116.94;;;19.32;100.00
52535;BME280;38443;53.164;5.802;2023-05-12T10:27:12;102110.84;;;19.27;100.00
52535;BME280;38443;53.164;5.802;2023-05-12T10:29:40;102114.38;;;19.09;100.00
52535;BME280;38443;53.164;5.802;2023-05-12T10:32:05;102110.69;;;19.10;100.00
52535;BME280;38443;53.164;5.802;2023-05-12T10:34:35;102119.31;;;19.20;100.00
52535;BME280;38443;53.164;5.802;2023-05-12T10:37:05;102121.63;;;19.29;100.00
52535;BME280;38443;53.164;5.802;2023-05-12T10:39:36;102112.09;;;19.39;100.00
52535;BME280;38443;53.164;5.802;2023-05-12T10:42:06;102116.22;;;19.48;100.00
52535;BME280;38443;53.164;5.802;2023-05-12T10:44:33;102119.16;;;19.62;100.00
52535;BME280;38443;53.164;5.802;2023-05-12T10:46:58;102109.41;;;19.79;100.00
52535;BME280;38443;53.164;5.802;2023-05-12T10:49:35;102099.47;;;19.97;100.00
52535;BME280;38443;53.164;5.802;2023-05-12T10:52:03;102106.66;;;19.98;100.00
52535;BME280;38443;53.164;5.802;2023-05-12T10:54:28;102103.00;;;19.99;100.00
52535;BME280;38443;53.164;5.802;2023-05-12T10:56:58;102097.69;;;19.96;100.00
52535;BME280;38443;53.164;5.802;2023-05-12T10:59:24;102101.47;;;20.10;100.00
52535;BME280;38443;53.164;5.802;2023-05-12T11:02:04;102096.16;;;20.26;100.00
52535;BME280;38443;53.164;5.802;2023-05-12T11:07:12;102106.28;;;20.42;100.00
52535;BME280;38443;53.164;5.802;2023-05-12T11:09:40;102101.56;;;20.45;100.00
52535;BME280;38443;53.164;5.802;2023-05-12T11:12:07;102103.00;;;20.35;100.00
52535;BME280;38443;53.164;5.802;2023-05-12T11:14:33;102108.25;;;20.21;100.00
52535;BME280;38443;53.164;5.802;2023-05-12T11:16:59;102112.88;;;20.19;100.00
52535;BME280;38443;53.164;5.802;2023-05-12T11:19:25;102112.09;;;20.17;100.00
52535;BME280;38443;53.164;5.802;2023-05-12T11:21:50;102110.44;;;20.31;100.00
52535;BME280;38443;53.164;5.802;2023-05-12T11:24:15;102102.34;;;20.30;100.00
52535;BME280;38443;53.164;5.802;2023-05-12T11:26:41;102106.09;;;20.27;100.00
52535;BME280;38443;53.164;5.802;2023-05-12T11:29:06;102105.06;;;20.30;100.00
52535;BME280;38443;53.164;5.802;2023-05-12T11:31:32;102098.69;;;20.31;100.00
52535;BME280;38443;53.164;5.802;2023-05-12T11:34:05;102100.41;;;20.15;100.00
52535;BME280;38443;53.164;5.802;2023-05-12T11:36:38;102100.28;;;19.99;100.00
52535;BME280;38443;53.164;5.802;2023-05-12T11:39:04;102101.94;;;19.82;100.00
52535;BME280;38443;53.164;5.802;2023-05-12T11:41:30;102103.31;;;19.53;100.00
52535;BME280;38443;53.164;5.802;2023-05-12T11:43:56;102116.91;;;19.53;100.00
52535;BME280;38443;53.164;5.802;2023-05-12T11:46:28;102105.94;;;19.75;100.00
52535;BME280;38443;53.164;5.802;2023-05-12T11:48:55;102102.75;;;20.03;100.00
52535;BME280;38443;53.164;5.802;2023-05-12T11:51:20;102101.03;;;20.20;100.00
52535;BME280;38443;53.164;5.802;2023-05-12T11:53:46;102109.31;;;20.36;100.00
52535;BME280;38443;53.164;5.802;2023-05-12T11:56:19;102101.41;;;20.48;100.00
52535;BME280;38443;53.164;5.802;2023-05-12T11:58:53;102096.28;;;20.61;100.00
52535;BME280;38443;53.164;5.802;2023-05-12T12:01:19;102101.00;;;20.75;100.00
52535;BME280;38443;53.164;5.802;2023-05-12T12:03:46;102101.28;;;20.86;100.00
52535;BME280;38443;53.164;5.802;2023-05-12T12:06:13;102101.47;;;20.83;100.00
52535;BME280;38443;53.164;5.802;2023-05-12T12:08:52;102096.75;;;20.87;100.00
52535;BME280;38443;53.164;5.802;2023-05-12T12:11:18;102093.84;;;21.07;100.00
52535;BME280;38443;53.164;5.802;2023-05-12T12:13:51;102095.09;;;21.18;100.00
52535;BME280;38443;53.164;5.802;2023-05-12T12:16:30;102107.13;;;20.96;100.00
52535;BME280;38443;53.164;5.802;2023-05-12T12:18:56;102102.34;;;21.01;100.00
52535;BME280;38443;53.164;5.802;2023-05-12T12:21:23;102100.09;;;20.92;100.00
52535;BME280;38443;53.164;5.802;2023-05-12T12:23:49;102095.22;;;20.81;100.00
52535;BME280;38443;53.164;5.802;2023-05-12T12:26:14;102104.84;;;20.71;100.00
52535;BME280;38443;53.164;5.802;2023-05-12T12:28:49;102100.03;;;20.76;100.00
52535;BME280;38443;53.164;5.802;2023-05-12T12:31:15;102104.50;;;20.77;100.00
52535;BME280;38443;53.164;5.802;2023-05-12T12:33:40;102101.81;;;20.58;100.00
52535;BME280;38443;53.164;5.802;2023-05-12T12:36:06;102106.09;;;20.27;100.00
52535;BME280;38443;53.164;5.802;2023-05-12T12:38:31;102104.13;;;20.12;100.00
52535;BME280;38443;53.164;5.802;2023-05-12T12:40:57;102100.28;;;20.35;100.00
52535;BME280;38443;53.164;5.802;2023-05-12T12:43:23;102102.59;;;20.62;100.00